createdAt,value
2023-05-14T00:01:17.835Z,100966.19
2023-05-14T00:03:48.368Z,100967.78
2023-05-14T00:06:18.675Z,100976.09
2023-05-14T00:08:49.172Z,100977.91
2023-05-14T00:11:19.476Z,100970.41
2023-05-14T00:13:50.006Z,100983.44
2023-05-14T00:16:20.455Z,100991.41
2023-05-14T00:18:51.135Z,100991.72
2023-05-14T00:21:22.159Z,100999.19
2023-05-14T00:23:52.557Z,100994.16
2023-05-14T00:26:23.845Z,100997.56
2023-05-14T00:28:54.158Z,101014.38
2023-05-14T00:31:24.810Z,101012.53
2023-05-14T00:33:54.897Z,101013.38
2023-05-14T00:36:25.595Z,101018.56
2023-05-14T00:38:56.185Z,101014.19
2023-05-14T00:41:26.724Z,101024.44
2023-05-14T00:43:57.311Z,101018.56
2023-05-14T00:46:28.047Z,101019.06
2023-05-14T00:48:58.770Z,101025.09
2023-05-14T00:51:29.432Z,101026.75
2023-05-14T00:53:59.945Z,101037.16
2023-05-14T00:56:31.528Z,101044.16
2023-05-14T00:59:02.467Z,101043.16
2023-05-14T01:01:33.631Z,101046.13
2023-05-14T01:04:04.667Z,101046.78
2023-05-14T01:06:41.101Z,101047.09
2023-05-14T01:09:25.949Z,101058.00
2023-05-14T01:12:11.742Z,101049.03
2023-05-14T01:15:05.703Z,101047.06
2023-05-14T01:17:38.751Z,101051.81
2023-05-14T01:20:10.266Z,101049.34
2023-05-14T01:22:41.257Z,101058.97
2023-05-14T01:25:12.069Z,101049.34
2023-05-14T01:28:05.428Z,101048.53
2023-05-14T01:31:10.712Z,101038.25
2023-05-14T01:33:45.522Z,101042.50
2023-05-14T01:36:16.103Z,101035.66
2023-05-14T01:38:48.225Z,101043.34
2023-05-14T01:41:20.023Z,101050.81
2023-05-14T01:43:50.844Z,101045.09
2023-05-14T01:46:22.462Z,101051.78
2023-05-14T01:48:53.072Z,101051.94
2023-05-14T01:51:23.346Z,101060.75
2023-05-14T01:53:53.745Z,101057.81
2023-05-14T01:56:26.188Z,101050.00
2023-05-14T01:58:58.074Z,101041.00
2023-05-14T02:01:28.747Z,101039.56
2023-05-14T02:03:59.565Z,101046.56
2023-05-14T02:06:30.138Z,101042.47
2023-05-14T02:09:00.635Z,101043.28
2023-05-14T02:11:30.923Z,101043.63
2023-05-14T02:14:01.106Z,101053.38
2023-05-14T02:16:31.464Z,101046.88
2023-05-14T02:19:01.964Z,101042.31
2023-05-14T02:21:34.449Z,101036.94
2023-05-14T02:24:04.743Z,101038.41
2023-05-14T02:26:35.155Z,101039.38
2023-05-14T02:29:05.462Z,101034.16
2023-05-14T02:31:35.947Z,101035.59
2023-05-14T02:34:11.201Z,101040.34
2023-05-14T02:36:41.484Z,101048.50
2023-05-14T02:39:12.475Z,101044.09
2023-05-14T02:41:42.905Z,101044.22
2023-05-14T02:44:13.325Z,101037.56
2023-05-14T02:46:43.907Z,101048.50
2023-05-14T02:49:14.514Z,101055.53
2023-05-14T02:51:46.408Z,101038.28
2023-05-14T02:54:18.853Z,101041.53
2023-05-14T02:56:51.291Z,101042.34
2023-05-14T02:59:21.757Z,101040.22
2023-05-14T03:01:53.020Z,101037.84
2023-05-14T03:04:23.518Z,101028.25
2023-05-14T03:06:53.688Z,101028.16
2023-05-14T03:09:23.883Z,101024.78
2023-05-14T03:12:13.578Z,101025.44
2023-05-14T03:14:44.007Z,101016.63
2023-05-14T03:17:14.726Z,101010.28
2023-05-14T03:19:44.968Z,101017.25
2023-05-14T03:22:15.602Z,101011.19
2023-05-14T03:24:45.951Z,101019.69
2023-05-14T03:27:16.424Z,101005.34
2023-05-14T03:29:46.800Z,101009.38
2023-05-14T03:32:17.638Z,101009.06
2023-05-14T03:34:49.781Z,101009.91
2023-05-14T03:37:20.870Z,101010.22
2023-05-14T03:39:50.936Z,101003.00
2023-05-14T03:42:21.172Z,101007.22
2023-05-14T03:44:51.512Z,101010.84
2023-05-14T03:47:21.997Z,101009.19
2023-05-14T03:49:53.047Z,101012.44
2023-05-14T03:52:23.423Z,100991.41
2023-05-14T03:54:54.368Z,101006.16
2023-05-14T03:57:24.712Z,100992.56
2023-05-14T03:59:55.079Z,100997.59
2023-05-14T04:02:25.920Z,100991.88
2023-05-14T04:04:58.601Z,100996.25
2023-05-14T04:07:29.027Z,100988.78
2023-05-14T04:09:59.579Z,100982.91
2023-05-14T04:12:31.512Z,100970.63
2023-05-14T04:15:02.072Z,100965.09
2023-05-14T04:17:33.468Z,100961.53
2023-05-14T04:20:04.949Z,100960.94
2023-05-14T04:22:35.273Z,100967.00
2023-05-14T04:25:05.754Z,100957.38
2023-05-14T04:27:36.879Z,100954.91
2023-05-14T04:30:07.747Z,100949.34
2023-05-14T04:32:38.949Z,100944.59
2023-05-14T04:35:09.311Z,100951.78
2023-05-14T04:37:40.183Z,100942.47
2023-05-14T04:40:15.229Z,100949.28
2023-05-14T04:42:46.307Z,100942.44
2023-05-14T04:45:17.063Z,100946.56
2023-05-14T04:47:47.404Z,100946.66
2023-05-14T04:50:18.204Z,100933.38
2023-05-14T04:52:48.578Z,100938.25
2023-05-14T04:55:19.211Z,100945.41
2023-05-14T04:57:49.776Z,100934.44
2023-05-14T05:00:22.032Z,100945.50
2023-05-14T05:02:53.155Z,100938.13
2023-05-14T05:05:23.905Z,100926.03
2023-05-14T05:07:54.398Z,100925.31
2023-05-14T05:10:25.341Z,100924.50
2023-05-14T05:12:55.778Z,100922.78
2023-05-14T05:15:26.664Z,100917.63
2023-05-14T05:17:57.678Z,100919.16
2023-05-14T05:20:30.492Z,100907.44
2023-05-14T05:23:02.303Z,100897.03
2023-05-14T05:25:33.792Z,100905.94
2023-05-14T05:28:04.056Z,100888.97
2023-05-14T05:30:34.528Z,100882.72
2023-05-14T05:33:05.031Z,100880.38
2023-05-14T05:35:35.495Z,100879.00
2023-05-14T05:38:05.622Z,100865.69
2023-05-14T05:40:36.422Z,100872.31
2023-05-14T05:43:07.315Z,100867.06
2023-05-14T05:45:37.681Z,100865.81
2023-05-14T05:48:08.550Z,100862.22
2023-05-14T05:50:39.220Z,100866.97
2023-05-14T05:53:09.425Z,100865.25
2023-05-14T05:55:39.796Z,100849.50
2023-05-14T05:58:09.992Z,100849.75
2023-05-14T06:00:40.255Z,100857.50
2023-05-14T06:03:10.564Z,100841.63
2023-05-14T06:05:40.950Z,100840.13
2023-05-14T06:08:12.874Z,100840.28
2023-05-14T06:10:44.205Z,100830.94
2023-05-14T06:13:15.575Z,100832.88
2023-05-14T06:15:45.805Z,100834.03
2023-05-14T06:18:16.134Z,100822.59
2023-05-14T06:20:48.929Z,100817.25
2023-05-14T06:23:19.206Z,100816.22
2023-05-14T06:25:50.669Z,100800.59
2023-05-14T06:28:21.128Z,100800.13
2023-05-14T06:30:54.733Z,100800.13
2023-05-14T06:33:32.084Z,100783.91
2023-05-14T06:36:03.769Z,100782.03
2023-05-14T06:38:34.553Z,100780.41
2023-05-14T06:41:05.110Z,100777.66
2023-05-14T06:43:35.633Z,100756.94
2023-05-14T06:46:05.858Z,100753.81
2023-05-14T06:48:36.322Z,100752.88
2023-05-14T06:51:07.373Z,100750.34
2023-05-14T06:53:38.434Z,100758.88
2023-05-14T06:56:09.483Z,100752.09
2023-05-14T06:58:40.087Z,100753.16
2023-05-14T07:01:11.038Z,100753.00
2023-05-14T07:03:42.003Z,100747.47
2023-05-14T07:06:13.655Z,100741.63
2023-05-14T07:08:45.175Z,100745.13
2023-05-14T07:11:19.268Z,100733.66
2023-05-14T07:13:50.268Z,100732.97
2023-05-14T07:16:21.703Z,100732.38
2023-05-14T07:18:52.726Z,100717.19
2023-05-14T07:21:23.489Z,100707.38
2023-05-14T07:23:55.839Z,100704.03
2023-05-14T07:26:28.966Z,100693.16
2023-05-14T07:29:00.344Z,100690.75
2023-05-14T07:31:30.771Z,100683.28
2023-05-14T07:34:02.133Z,100671.56
2023-05-14T07:36:33.789Z,100670.88
2023-05-14T07:39:04.875Z,100667.03
2023-05-14T07:41:35.797Z,100658.34
2023-05-14T07:44:06.871Z,100645.78
2023-05-14T07:46:37.774Z,100649.00
2023-05-14T07:49:09.239Z,100653.75
2023-05-14T07:51:40.109Z,100638.22
2023-05-14T07:54:10.805Z,100648.31
2023-05-14T07:56:41.506Z,100647.25
2023-05-14T07:59:12.493Z,100636.38
2023-05-14T08:01:43.555Z,100640.31
2023-05-14T08:04:19.099Z,100634.03
2023-05-14T08:06:50.024Z,100637.53
2023-05-14T08:09:20.707Z,100631.63
2023-05-14T08:11:51.579Z,100625.97
2023-05-14T08:14:23.282Z,100619.25
2023-05-14T08:16:54.642Z,100623.19
2023-05-14T08:19:27.304Z,100614.75
2023-05-14T08:21:58.494Z,100609.41
2023-05-14T08:24:32.104Z,100604.09
2023-05-14T08:27:02.885Z,100604.28
2023-05-14T08:29:33.561Z,100619.34
2023-05-14T08:32:15.616Z,100594.69
2023-05-14T08:34:53.591Z,100593.97
2023-05-14T08:37:24.261Z,100597.63
2023-05-14T08:39:55.116Z,100587.59
2023-05-14T08:42:28.799Z,100586.69
2023-05-14T08:45:05.537Z,100583.53
2023-05-14T08:47:37.480Z,100579.88
2023-05-14T08:50:13.134Z,100578.72
2023-05-14T08:52:44.143Z,100571.44
2023-05-14T08:55:16.288Z,100555.56
2023-05-14T08:57:47.445Z,100557.25
2023-05-14T09:00:19.092Z,100552.53
2023-05-14T09:02:50.927Z,100545.06
2023-05-14T09:05:23.145Z,100544.41
2023-05-14T09:07:54.018Z,100540.81
2023-05-14T09:10:25.726Z,100535.41
2023-05-14T09:12:57.285Z,100530.00
2023-05-14T09:15:30.992Z,100520.91
2023-05-14T09:18:02.134Z,100521.50
2023-05-14T09:20:33.227Z,100506.16
2023-05-14T09:23:04.693Z,100503.38
2023-05-14T09:25:36.322Z,100494.16
2023-05-14T09:28:12.469Z,100504.59
2023-05-14T09:30:43.443Z,100507.00
2023-05-14T09:33:14.139Z,100495.03
2023-05-14T09:35:46.220Z,100491.88
2023-05-14T09:38:17.345Z,100494.66
2023-05-14T09:40:48.967Z,100504.16
2023-05-14T09:43:20.178Z,100500.38
2023-05-14T09:45:50.703Z,100507.31
2023-05-14T09:48:22.111Z,100520.75
2023-05-14T09:50:54.456Z,100521.44
2023-05-14T09:53:25.539Z,100522.28
2023-05-14T09:55:58.400Z,100521.81
2023-05-14T09:58:29.556Z,100537.31
2023-05-14T10:01:00.918Z,100536.03
2023-05-14T10:03:32.977Z,100545.81
2023-05-14T10:06:08.542Z,100548.69
2023-05-14T10:08:44.081Z,100551.63
2023-05-14T10:11:23.874Z,100555.38
2023-05-14T10:14:21.415Z,100553.16
2023-05-14T10:16:54.542Z,100547.13
2023-05-14T10:19:31.033Z,100555.00
2023-05-14T10:22:08.415Z,100563.97
2023-05-14T10:24:41.710Z,100572.75
2023-05-14T10:27:15.323Z,100581.88
2023-05-14T10:29:58.356Z,100581.88
2023-05-14T10:32:31.485Z,100578.91
2023-05-14T10:35:05.129Z,100584.91
2023-05-14T10:37:36.578Z,100581.31
2023-05-14T10:40:10.651Z,100584.00
2023-05-14T10:42:43.702Z,100590.34
2023-05-14T10:45:17.367Z,100596.94
2023-05-14T10:47:50.277Z,100593.59
2023-05-14T10:50:22.044Z,100598.69
2023-05-14T10:52:54.696Z,100606.41
2023-05-14T10:55:26.011Z,100613.59
2023-05-14T10:57:56.474Z,100634.69
2023-05-14T11:00:30.698Z,100641.84
2023-05-14T11:03:03.524Z,100651.56
2023-05-14T11:05:35.410Z,100650.41
2023-05-14T11:08:10.690Z,100653.19
2023-05-14T11:10:42.747Z,100658.06
2023-05-14T11:13:14.813Z,100664.53
2023-05-14T11:15:50.925Z,100665.72
2023-05-14T11:18:31.745Z,100678.66
2023-05-14T11:21:05.802Z,100695.78
2023-05-14T11:23:36.776Z,100715.28
2023-05-14T11:26:07.489Z,100732.28
2023-05-14T11:28:38.497Z,100752.34
2023-05-14T11:31:09.229Z,100767.09
2023-05-14T11:33:40.208Z,100781.28
2023-05-14T11:36:15.367Z,100804.53
2023-05-14T11:38:54.277Z,100823.91
2023-05-14T11:41:25.888Z,100813.06
2023-05-14T11:43:57.041Z,100827.81
2023-05-14T11:46:29.173Z,100825.41
2023-05-14T11:49:00.187Z,100817.94
2023-05-14T11:51:32.055Z,100839.69
2023-05-14T11:54:02.972Z,100838.53
2023-05-14T11:56:33.940Z,100829.63
2023-05-14T11:59:04.788Z,100844.81
2023-05-14T12:01:42.785Z,100830.78
2023-05-14T12:04:13.787Z,100836.97
2023-05-14T12:06:44.558Z,100844.22
2023-05-14T12:09:19.161Z,100844.44
2023-05-14T12:11:50.586Z,100844.44
2023-05-14T12:14:26.559Z,100835.78
2023-05-14T12:16:57.633Z,100823.72
2023-05-14T12:19:29.294Z,100803.38
2023-05-14T12:22:04.473Z,100790.88
2023-05-14T12:24:36.118Z,100795.31
2023-05-14T12:27:07.549Z,100799.75
2023-05-14T12:29:42.208Z,100805.72
2023-05-14T12:32:13.884Z,100813.59
2023-05-14T12:34:44.844Z,100821.41
2023-05-14T12:37:15.870Z,100824.06
2023-05-14T12:39:48.606Z,100821.94
2023-05-14T12:42:19.509Z,100820.94
2023-05-14T12:44:50.409Z,100837.34
2023-05-14T12:47:21.462Z,100840.22
2023-05-14T12:49:52.474Z,100841.69
2023-05-14T12:52:36.811Z,100852.25
2023-05-14T12:55:09.149Z,100851.81
2023-05-14T12:57:41.581Z,100854.88
2023-05-14T13:00:14.412Z,100855.81
2023-05-14T13:02:45.643Z,100853.19
2023-05-14T13:05:16.697Z,100855.34
2023-05-14T13:07:47.716Z,100872.59
2023-05-14T13:10:21.257Z,100876.53
2023-05-14T13:12:53.510Z,100875.09
2023-05-14T13:15:24.788Z,100883.56
2023-05-14T13:17:56.093Z,100878.88
2023-05-14T13:20:28.584Z,100892.84
2023-05-14T13:23:03.843Z,100895.50
2023-05-14T13:25:34.766Z,100897.91
2023-05-14T13:28:05.900Z,100901.81
2023-05-14T13:30:36.820Z,100894.34
2023-05-14T13:33:08.499Z,100896.16
2023-05-14T13:35:39.337Z,100896.50
2023-05-14T13:38:11.446Z,100911.16
2023-05-14T13:40:42.761Z,100906.75
2023-05-14T13:43:13.880Z,100913.56
2023-05-14T13:45:44.716Z,100922.50
2023-05-14T13:48:15.611Z,100925.44
2023-05-14T13:50:47.183Z,100924.22
2023-05-14T13:53:18.541Z,100922.91
2023-05-14T13:55:49.498Z,100931.69
2023-05-14T13:58:20.440Z,100926.09
2023-05-14T14:00:51.442Z,100926.09
2023-05-14T14:03:22.546Z,100938.81
2023-05-14T14:05:54.779Z,100936.34
2023-05-14T14:08:25.621Z,100929.13
2023-05-14T14:10:59.501Z,100939.06
2023-05-14T14:13:30.821Z,100948.84
2023-05-14T14:16:02.344Z,100955.03
2023-05-14T14:18:33.424Z,100963.34
2023-05-14T14:21:04.161Z,100968.09
2023-05-14T14:23:35.302Z,100969.84
2023-05-14T14:26:06.951Z,100972.75
2023-05-14T14:28:38.187Z,100977.81
2023-05-14T14:31:09.520Z,100978.63
2023-05-14T14:33:40.581Z,100972.25
2023-05-14T14:36:11.916Z,100966.84
2023-05-14T14:38:44.710Z,100972.06
2023-05-14T14:41:15.788Z,100964.56
2023-05-14T14:43:46.733Z,100977.28
2023-05-14T14:46:17.829Z,100986.75
2023-05-14T14:48:49.480Z,100991.13
2023-05-14T14:51:21.146Z,101000.13
2023-05-14T14:53:52.483Z,101015.09
2023-05-14T14:56:23.960Z,101023.75
2023-05-14T14:58:54.906Z,101024.41
2023-05-14T15:01:26.012Z,101016.00
2023-05-14T15:03:56.966Z,101028.06
2023-05-14T15:06:27.887Z,101041.44
2023-05-14T15:08:58.719Z,101043.88
2023-05-14T15:11:29.827Z,101045.88
2023-05-14T15:14:02.688Z,101039.56
2023-05-14T15:16:33.580Z,101035.00
2023-05-14T15:19:05.263Z,101039.25
2023-05-14T15:21:36.646Z,101044.94
2023-05-14T15:24:13.029Z,101050.59
2023-05-14T15:26:53.272Z,101057.31
2023-05-14T15:29:25.158Z,101044.59
2023-05-14T15:31:56.131Z,101050.13
2023-05-14T15:34:27.155Z,101056.47
2023-05-14T15:36:57.989Z,101055.50
2023-05-14T15:39:30.142Z,101062.50
2023-05-14T15:42:01.194Z,101062.34
2023-05-14T15:44:32.494Z,101053.56
2023-05-14T15:47:02.964Z,101063.69
2023-05-14T15:49:33.845Z,101058.66
2023-05-14T15:52:05.732Z,101060.47
2023-05-14T15:54:36.837Z,101050.50
2023-05-14T15:57:07.444Z,101053.16
2023-05-14T15:59:38.294Z,101047.25
2023-05-14T16:02:09.419Z,101036.53
2023-05-14T16:04:40.034Z,101029.84
2023-05-14T16:07:15.073Z,101031.81
2023-05-14T16:09:45.868Z,101027.84
2023-05-14T16:12:17.216Z,101016.78
2023-05-14T16:14:48.162Z,101020.25
2023-05-14T16:17:19.073Z,101015.97
2023-05-14T16:19:49.897Z,101024.16
2023-05-14T16:22:20.951Z,101017.78
2023-05-14T16:24:51.775Z,101022.03
2023-05-14T16:27:22.857Z,101022.03
2023-05-14T16:29:54.022Z,101020.41
2023-05-14T16:32:25.874Z,101016.50
2023-05-14T16:34:59.196Z,101016.50
2023-05-14T16:37:30.474Z,101010.94
2023-05-14T16:40:01.300Z,101015.34
2023-05-14T16:42:32.057Z,101009.31
2023-05-14T16:45:02.925Z,101014.88
2023-05-14T16:47:34.108Z,101009.16
2023-05-14T16:50:05.062Z,101002.78
2023-05-14T16:52:36.272Z,100994.31
2023-05-14T16:55:07.671Z,100987.63
2023-05-14T16:57:38.608Z,100979.31
2023-05-14T17:00:10.595Z,100974.94
2023-05-14T17:02:41.905Z,100974.09
2023-05-14T17:05:12.458Z,100980.59
2023-05-14T17:07:44.108Z,100978.97
2023-05-14T17:10:15.011Z,100981.44
2023-05-14T17:12:46.126Z,100973.78
2023-05-14T17:15:17.274Z,100968.25
2023-05-14T17:17:48.428Z,100974.25
2023-05-14T17:20:19.370Z,100972.50
2023-05-14T17:22:51.654Z,100963.00
2023-05-14T17:25:23.876Z,100970.19
2023-05-14T17:27:56.059Z,100973.31
2023-05-14T17:30:26.888Z,100974.06
2023-05-14T17:32:58.052Z,100969.88
2023-05-14T22:52:10.738Z,100885.94
2023-05-14T22:54:41.609Z,100897.66
2023-05-14T22:57:12.440Z,100889.38
2023-05-14T22:59:45.021Z,100893.56
2023-05-14T23:02:16.187Z,100906.91
2023-05-14T23:04:46.765Z,100899.94
2023-05-14T23:07:18.164Z,100906.75
2023-05-14T23:09:49.075Z,100912.78
2023-05-14T23:12:21.289Z,100911.00
2023-05-14T23:14:52.253Z,100909.84
2023-05-14T23:17:23.372Z,100921.88
2023-05-14T23:19:53.993Z,100918.78
2023-05-14T23:22:25.117Z,100922.84
2023-05-14T23:24:56.618Z,100923.00
2023-05-14T23:30:13.531Z,100925.97
2023-05-14T23:32:44.442Z,100921.72
2023-05-14T23:35:15.407Z,100931.31
2023-05-14T23:37:51.616Z,100936.53
2023-05-14T23:40:23.147Z,100946.59
2023-05-14T23:42:54.135Z,100952.50
2023-05-14T23:45:25.304Z,100957.19
2023-05-14T23:47:59.537Z,100956.06
2023-05-14T23:50:30.714Z,100957.69
2023-05-14T23:53:01.272Z,100960.78
2023-05-14T23:55:32.851Z,100959.63
2023-05-14T23:58:03.906Z,100972.31
